sensor_id;sensor_type;location;lat;lon;timestamp;P1;durP1;ratioP1;P2;durP2;ratioP2
10347;SDS011;5220;43.192;23.284;2022-07-22T00:01:58;4.15;;;3.72;;
10347;SDS011;5220;43.192;23.284;2022-07-22T00:04:25;5.70;;;3.08;;
10347;SDS011;5220;43.192;23.284;2022-07-22T00:06:51;6.80;;;3.45;;
10347;SDS011;5220;43.192;23.284;2022-07-22T00:09:20;5.15;;;3.20;;
10347;SDS011;5220;43.192;23.284;2022-07-22T00:11:46;5.20;;;3.50;;
10347;SDS011;5220;43.192;23.284;2022-07-22T00:14:13;7.15;;;3.20;;
10347;SDS011;5220;43.192;23.284;2022-07-22T00:16:40;5.97;;;3.58;;
10347;SDS011;5220;43.192;23.284;2022-07-22T00:19:07;8.10;;;3.47;;
10347;SDS011;5220;43.192;23.284;2022-07-22T00:21:34;6.75;;;2.95;;
10347;SDS011;5220;43.192;23.284;2022-07-22T00:24:01;8.75;;;3.50;;
10347;SDS011;5220;43.192;23.284;2022-07-22T00:26:30;3.63;;;3.15;;
10347;SDS011;5220;43.192;23.284;2022-07-22T00:28:57;9.50;;;3.30;;
10347;SDS011;5220;43.192;23.284;2022-07-22T00:31:23;7.60;;;3.78;;
10347;SDS011;5220;43.192;23.284;2022-07-22T00:33:50;6.13;;;3.35;;
10347;SDS011;5220;43.192;23.284;2022-07-22T00:36:17;7.05;;;3.50;;
10347;SDS011;5220;43.192;23.284;2022-07-22T00:38:44;5.47;;;3.10;;
10347;SDS011;5220;43.192;23.284;2022-07-22T00:41:10;5.20;;;3.47;;
10347;SDS011;5220;43.192;23.284;2022-07-22T00:43:55;7.25;;;3.15;;
10347;SDS011;5220;43.192;23.284;2022-07-22T00:46:25;6.57;;;3.08;;
10347;SDS011;5220;43.192;23.284;2022-07-22T00:48:52;4.80;;;3.25;;
10347;SDS011;5220;43.192;23.284;2022-07-22T00:51:20;7.95;;;3.17;;
10347;SDS011;5220;43.192;23.284;2022-07-22T00:53:49;5.43;;;3.00;;
10347;SDS011;5220;43.192;23.284;2022-07-22T00:56:17;5.45;;;3.75;;
10347;SDS011;5220;43.192;23.284;2022-07-22T00:58:45;8.25;;;3.45;;
10347;SDS011;5220;43.192;23.284;2022-07-22T01:01:14;6.15;;;3.15;;
10347;SDS011;5220;43.192;23.284;2022-07-22T01:03:40;4.68;;;3.15;;
10347;SDS011;5220;43.192;23.284;2022-07-22T01:06:07;6.15;;;3.45;;
10347;SDS011;5220;43.192;23.284;2022-07-22T01:08:35;6.85;;;3.50;;
10347;SDS011;5220;43.192;23.284;2022-07-22T01:11:07;5.38;;;3.00;;
10347;SDS011;5220;43.192;23.284;2022-07-22T01:13:34;7.60;;;3.47;;
10347;SDS011;5220;43.192;23.284;2022-07-22T01:16:02;5.05;;;3.65;;
10347;SDS011;5220;43.192;23.284;2022-07-22T01:18:30;5.80;;;3.53;;
10347;SDS011;5220;43.192;23.284;2022-07-22T01:20:58;9.10;;;3.28;;
10347;SDS011;5220;43.192;23.284;2022-07-22T01:23:25;5.38;;;3.08;;
10347;SDS011;5220;43.192;23.284;2022-07-22T01:25:52;80.50;;;5.70;;
10347;SDS011;5220;43.192;23.284;2022-07-22T01:28:19;7.85;;;3.42;;
10347;SDS011;5220;43.192;23.284;2022-07-22T01:30:46;3.78;;;3.10;;
10347;SDS011;5220;43.192;23.284;2022-07-22T01:33:14;4.40;;;3.50;;
10347;SDS011;5220;43.192;23.284;2022-07-22T01:35:41;6.15;;;2.97;;
10347;SDS011;5220;43.192;23.284;2022-07-22T01:38:09;5.22;;;3.05;;
10347;SDS011;5220;43.192;23.284;2022-07-22T01:40:36;3.47;;;3.13;;
10347;SDS011;5220;43.192;23.284;2022-07-22T01:43:03;5.07;;;3.17;;
10347;SDS011;5220;43.192;23.284;2022-07-22T01:45:30;7.03;;;3.72;;
10347;SDS011;5220;43.192;23.284;2022-07-22T01:47:56;4.35;;;3.22;;
10347;SDS011;5220;43.192;23.284;2022-07-22T01:50:23;6.38;;;2.85;;
10347;SDS011;5220;43.192;23.284;2022-07-22T01:52:50;9.13;;;3.00;;
10347;SDS011;5220;43.192;23.284;2022-07-22T01:55:19;5.97;;;3.45;;
10347;SDS011;5220;43.192;23.284;2022-07-22T01:57:45;3.78;;;3.13;;
10347;SDS011;5220;43.192;23.284;2022-07-22T02:00:13;7.93;;;3.28;;
10347;SDS011;5220;43.192;23.284;2022-07-22T02:02:40;7.20;;;3.42;;
10347;SDS011;5220;43.192;23.284;2022-07-22T02:05:07;5.65;;;3.35;;
10347;SDS011;5220;43.192;23.284;2022-07-22T02:07:35;6.90;;;2.97;;
10347;SDS011;5220;43.192;23.284;2022-07-22T02:10:01;6.55;;;3.05;;
10347;SDS011;5220;43.192;23.284;2022-07-22T02:12:31;7.00;;;3.17;;
10347;SDS011;5220;43.192;23.284;2022-07-22T02:14:58;6.35;;;3.50;;
10347;SDS011;5220;43.192;23.284;2022-07-22T02:17:25;5.18;;;3.42;;
10347;SDS011;5220;43.192;23.284;2022-07-22T02:19:52;4.75;;;2.95;;
10347;SDS011;5220;43.192;23.284;2022-07-22T02:22:19;3.60;;;2.92;;
10347;SDS011;5220;43.192;23.284;2022-07-22T02:24:45;7.63;;;3.90;;
10347;SDS011;5220;43.192;23.284;2022-07-22T02:27:12;3.58;;;3.28;;
10347;SDS011;5220;43.192;23.284;2022-07-22T02:29:40;5.60;;;3.67;;
10347;SDS011;5220;43.192;23.284;2022-07-22T02:32:07;3.38;;;3.08;;
10347;SDS011;5220;43.192;23.284;2022-07-22T02:34:34;4.65;;;3.08;;
10347;SDS011;5220;43.192;23.284;2022-07-22T02:37:00;6.97;;;3.42;;
10347;SDS011;5220;43.192;23.284;2022-07-22T02:39:27;4.82;;;3.20;;
10347;SDS011;5220;43.192;23.284;2022-07-22T02:41:54;9.30;;;3.40;;
10347;SDS011;5220;43.192;23.284;2022-07-22T02:44:21;4.53;;;3.38;;
10347;SDS011;5220;43.192;23.284;2022-07-22T02:46:49;8.90;;;3.40;;
10347;SDS011;5220;43.192;23.284;2022-07-22T02:49:16;6.03;;;3.50;;
10347;SDS011;5220;43.192;23.284;2022-07-22T02:51:42;7.47;;;3.40;;
10347;SDS011;5220;43.192;23.284;2022-07-22T02:54:09;4.78;;;3.22;;
10347;SDS011;5220;43.192;23.284;2022-07-22T02:56:36;4.03;;;3.15;;
10347;SDS011;5220;43.192;23.284;2022-07-22T02:59:03;3.58;;;3.17;;
10347;SDS011;5220;43.192;23.284;2022-07-22T03:01:29;4.22;;;3.35;;
10347;SDS011;5220;43.192;23.284;2022-07-22T03:03:57;7.25;;;3.50;;
10347;SDS011;5220;43.192;23.284;2022-07-22T03:06:24;7.15;;;3.45;;
10347;SDS011;5220;43.192;23.284;2022-07-22T03:08:51;3.50;;;3.20;;
10347;SDS011;5220;43.192;23.284;2022-07-22T03:11:18;3.47;;;3.10;;
10347;SDS011;5220;43.192;23.284;2022-07-22T03:13:44;6.43;;;3.45;;
10347;SDS011;5220;43.192;23.284;2022-07-22T03:16:11;5.75;;;3.08;;
10347;SDS011;5220;43.192;23.284;2022-07-22T03:18:38;7.00;;;3.22;;
10347;SDS011;5220;43.192;23.284;2022-07-22T03:21:06;5.63;;;3.10;;
10347;SDS011;5220;43.192;23.284;2022-07-22T03:23:33;4.88;;;3.15;;
10347;SDS011;5220;43.192;23.284;2022-07-22T03:26:00;11.30;;;4.18;;
10347;SDS011;5220;43.192;23.284;2022-07-22T03:28:26;5.18;;;3.20;;
10347;SDS011;5220;43.192;23.284;2022-07-22T03:30:53;7.82;;;3.58;;
10347;SDS011;5220;43.192;23.284;2022-07-22T03:33:20;5.15;;;3.60;;
10347;SDS011;5220;43.192;23.284;2022-07-22T03:35:47;6.15;;;3.58;;
10347;SDS011;5220;43.192;23.284;2022-07-22T03:38:15;5.05;;;3.28;;
10347;SDS011;5220;43.192;23.284;2022-07-22T03:40:41;7.38;;;3.60;;
10347;SDS011;5220;43.192;23.284;2022-07-22T03:43:08;5.43;;;3.70;;
10347;SDS011;5220;43.192;23.284;2022-07-22T03:45:35;3.72;;;3.35;;
10347;SDS011;5220;43.192;23.284;2022-07-22T03:48:02;4.00;;;3.60;;
10347;SDS011;5220;43.192;23.284;2022-07-22T03:50:29;4.47;;;3.47;;
10347;SDS011;5220;43.192;23.284;2022-07-22T03:52:56;7.68;;;3.70;;
10347;SDS011;5220;43.192;23.284;2022-07-22T03:55:24;4.65;;;3.15;;
10347;SDS011;5220;43.192;23.284;2022-07-22T03:57:51;9.07;;;3.70;;
10347;SDS011;5220;43.192;23.284;2022-07-22T04:00:17;4.70;;;3.50;;
10347;SDS011;5220;43.192;23.284;2022-07-22T04:02:44;11.13;;;4.25;;
10347;SDS011;5220;43.192;23.284;2022-07-22T04:05:11;8.63;;;3.90;;
10347;SDS011;5220;43.192;23.284;2022-07-22T04:07:38;7.75;;;3.83;;
10347;SDS011;5220;43.192;23.284;2022-07-22T04:10:05;12.13;;;4.95;;
10347;SDS011;5220;43.192;23.284;2022-07-22T04:12:34;16.58;;;5.28;;
10347;SDS011;5220;43.192;23.284;2022-07-22T04:15:02;11.57;;;5.22;;
10347;SDS011;5220;43.192;23.284;2022-07-22T04:17:29;8.35;;;4.60;;
10347;SDS011;5220;43.192;23.284;2022-07-22T04:19:56;10.18;;;4.55;;
10347;SDS011;5220;43.192;23.284;2022-07-22T04:22:24;15.07;;;4.60;;
10347;SDS011;5220;43.192;23.284;2022-07-22T04:24:51;7.75;;;3.47;;
10347;SDS011;5220;43.192;23.284;2022-07-22T04:27:18;9.63;;;3.60;;
10347;SDS011;5220;43.192;23.284;2022-07-22T04:29:46;8.43;;;4.00;;
10347;SDS011;5220;43.192;23.284;2022-07-22T04:32:13;5.78;;;3.63;;
10347;SDS011;5220;43.192;23.284;2022-07-22T04:34:39;6.80;;;3.85;;
10347;SDS011;5220;43.192;23.284;2022-07-22T04:37:06;9.05;;;3.85;;
10347;SDS011;5220;43.192;23.284;2022-07-22T04:39:33;7.40;;;3.40;;
10347;SDS011;5220;43.192;23.284;2022-07-22T04:42:00;6.43;;;3.63;;
10347;SDS011;5220;43.192;23.284;2022-07-22T04:44:29;14.63;;;3.80;;
10347;SDS011;5220;43.192;23.284;2022-07-22T04:46:58;4.72;;;3.33;;
10347;SDS011;5220;43.192;23.284;2022-07-22T04:49:24;6.90;;;4.10;;
10347;SDS011;5220;43.192;23.284;2022-07-22T04:51:52;15.50;;;4.60;;
10347;SDS011;5220;43.192;23.284;2022-07-22T04:54:19;11.55;;;4.25;;
10347;SDS011;5220;43.192;23.284;2022-07-22T04:56:45;6.75;;;3.85;;
10347;SDS011;5220;43.192;23.284;2022-07-22T04:59:12;7.90;;;4.63;;
10347;SDS011;5220;43.192;23.284;2022-07-22T05:01:39;8.65;;;4.93;;
10347;SDS011;5220;43.192;23.284;2022-07-22T05:04:07;12.77;;;5.70;;
10347;SDS011;5220;43.192;23.284;2022-07-22T05:06:34;19.55;;;4.82;;
10347;SDS011;5220;43.192;23.284;2022-07-22T05:09:01;13.00;;;4.43;;
10347;SDS011;5220;43.192;23.284;2022-07-22T05:11:28;6.53;;;4.07;;
10347;SDS011;5220;43.192;23.284;2022-07-22T05:13:54;6.22;;;3.90;;
10347;SDS011;5220;43.192;23.284;2022-07-22T05:16:21;5.15;;;4.00;;
10347;SDS011;5220;43.192;23.284;2022-07-22T05:18:48;4.90;;;4.00;;
10347;SDS011;5220;43.192;23.284;2022-07-22T05:21:16;7.45;;;4.88;;
10347;SDS011;5220;43.192;23.284;2022-07-22T05:23:43;8.98;;;5.63;;
10347;SDS011;5220;43.192;23.284;2022-07-22T05:26:10;10.13;;;5.05;;
10347;SDS011;5220;43.192;23.284;2022-07-22T05:28:36;8.18;;;4.80;;
10347;SDS011;5220;43.192;23.284;2022-07-22T05:31:03;6.40;;;4.70;;
10347;SDS011;5220;43.192;23.284;2022-07-22T05:33:30;7.30;;;5.40;;
10347;SDS011;5220;43.192;23.284;2022-07-22T05:35:57;8.45;;;5.63;;
10347;SDS011;5220;43.192;23.284;2022-07-22T05:38:25;8.05;;;4.93;;
10347;SDS011;5220;43.192;23.284;2022-07-22T05:40:52;10.23;;;5.38;;
10347;SDS011;5220;43.192;23.284;2022-07-22T05:43:18;14.75;;;8.55;;
10347;SDS011;5220;43.192;23.284;2022-07-22T05:45:45;16.92;;;9.13;;
10347;SDS011;5220;43.192;23.284;2022-07-22T05:48:12;17.23;;;13.63;;
10347;SDS011;5220;43.192;23.284;2022-07-22T05:50:39;18.10;;;12.52;;
10347;SDS011;5220;43.192;23.284;2022-07-22T05:53:06;13.82;;;8.57;;
10347;SDS011;5220;43.192;23.284;2022-07-22T05:55:34;14.77;;;7.38;;
10347;SDS011;5220;43.192;23.284;2022-07-22T05:58:00;8.32;;;6.00;;
10347;SDS011;5220;43.192;23.284;2022-07-22T06:00:28;7.47;;;4.95;;
10347;SDS011;5220;43.192;23.284;2022-07-22T06:02:54;6.18;;;4.53;;
10347;SDS011;5220;43.192;23.284;2022-07-22T06:05:32;8.32;;;4.55;;
10347;SDS011;5220;43.192;23.284;2022-07-22T06:08:00;6.95;;;4.35;;
10347;SDS011;5220;43.192;23.284;2022-07-22T06:10:27;10.43;;;4.40;;
10347;SDS011;5220;43.192;23.284;2022-07-22T06:12:55;8.05;;;4.70;;
10347;SDS011;5220;43.192;23.284;2022-07-22T06:15:38;5.47;;;4.13;;
10347;SDS011;5220;43.192;23.284;2022-07-22T06:18:05;8.93;;;4.35;;
10347;SDS011;5220;43.192;23.284;2022-07-22T06:20:32;6.07;;;4.47;;
10347;SDS011;5220;43.192;23.284;2022-07-22T06:22:59;10.35;;;4.78;;
10347;SDS011;5220;43.192;23.284;2022-07-22T06:25:26;46.20;;;6.97;;
10347;SDS011;5220;43.192;23.284;2022-07-22T06:27:54;30.42;;;6.65;;
10347;SDS011;5220;43.192;23.284;2022-07-22T06:30:21;8.60;;;4.35;;
10347;SDS011;5220;43.192;23.284;2022-07-22T06:32:48;6.80;;;4.68;;
10347;SDS011;5220;43.192;23.284;2022-07-22T06:35:14;23.92;;;6.03;;
10347;SDS011;5220;43.192;23.284;2022-07-22T06:37:41;8.48;;;4.55;;
10347;SDS011;5220;43.192;23.284;2022-07-22T06:40:23;10.27;;;4.68;;
10347;SDS011;5220;43.192;23.284;2022-07-22T06:45:21;29.85;;;7.20;;
10347;SDS011;5220;43.192;23.284;2022-07-22T06:47:48;6.72;;;4.25;;
10347;SDS011;5220;43.192;23.284;2022-07-22T06:50:15;8.73;;;4.60;;
10347;SDS011;5220;43.192;23.284;2022-07-22T06:52:42;7.63;;;5.00;;
10347;SDS011;5220;43.192;23.284;2022-07-22T06:55:09;10.45;;;4.85;;
10347;SDS011;5220;43.192;23.284;2022-07-22T06:57:35;7.03;;;4.35;;
10347;SDS011;5220;43.192;23.284;2022-07-22T07:00:05;9.65;;;4.82;;
10347;SDS011;5220;43.192;23.284;2022-07-22T07:02:33;9.73;;;4.72;;
10347;SDS011;5220;43.192;23.284;2022-07-22T07:05:01;5.47;;;3.83;;
10347;SDS011;5220;43.192;23.284;2022-07-22T07:07:28;8.90;;;4.40;;
10347;SDS011;5220;43.192;23.284;2022-07-22T07:09:55;9.57;;;4.30;;
10347;SDS011;5220;43.192;23.284;2022-07-22T07:12:21;6.55;;;4.15;;
10347;SDS011;5220;43.192;23.284;2022-07-22T07:14:48;7.47;;;4.40;;
10347;SDS011;5220;43.192;23.284;2022-07-22T07:17:17;6.07;;;3.72;;
10347;SDS011;5220;43.192;23.284;2022-07-22T07:19:43;13.38;;;5.00;;
10347;SDS011;5220;43.192;23.284;2022-07-22T07:22:10;6.22;;;4.10;;
10347;SDS011;5220;43.192;23.284;2022-07-22T07:24:37;9.82;;;4.47;;
10347;SDS011;5220;43.192;23.284;2022-07-22T07:27:03;11.95;;;4.72;;
10347;SDS011;5220;43.192;23.284;2022-07-22T07:29:30;5.10;;;4.57;;
10347;SDS011;5220;43.192;23.284;2022-07-22T07:31:57;10.02;;;4.28;;
10347;SDS011;5220;43.192;23.284;2022-07-22T07:34:25;7.00;;;4.30;;
10347;SDS011;5220;43.192;23.284;2022-07-22T07:36:52;5.35;;;4.10;;
10347;SDS011;5220;43.192;23.284;2022-07-22T07:39:19;8.60;;;4.28;;
10347;SDS011;5220;43.192;23.284;2022-07-22T07:44:38;6.32;;;4.18;;
10347;SDS011;5220;43.192;23.284;2022-07-22T07:47:05;10.73;;;4.50;;
10347;SDS011;5220;43.192;23.284;2022-07-22T07:49:34;4.85;;;4.25;;
10347;SDS011;5220;43.192;23.284;2022-07-22T07:52:01;7.05;;;4.70;;
10347;SDS011;5220;43.192;23.284;2022-07-22T07:54:29;5.07;;;4.28;;
10347;SDS011;5220;43.192;23.284;2022-07-22T07:56:56;7.22;;;4.22;;
10347;SDS011;5220;43.192;23.284;2022-07-22T07:59:23;6.65;;;4.88;;
10347;SDS011;5220;43.192;23.284;2022-07-22T08:01:49;10.27;;;4.88;;
10347;SDS011;5220;43.192;23.284;2022-07-22T08:04:16;11.23;;;4.90;;
10347;SDS011;5220;43.192;23.284;2022-07-22T08:06:44;9.35;;;4.10;;
10347;SDS011;5220;43.192;23.284;2022-07-22T08:09:11;11.40;;;4.38;;
10347;SDS011;5220;43.192;23.284;2022-07-22T08:11:38;7.60;;;4.10;;
10347;SDS011;5220;43.192;23.284;2022-07-22T08:14:04;9.73;;;4.45;;
10347;SDS011;5220;43.192;23.284;2022-07-22T08:16:31;7.95;;;4.30;;
10347;SDS011;5220;43.192;23.284;2022-07-22T08:18:58;15.50;;;4.65;;
10347;SDS011;5220;43.192;23.284;2022-07-22T08:21:25;11.38;;;4.20;;
10347;SDS011;5220;43.192;23.284;2022-07-22T08:23:53;42.38;;;7.03;;
10347;SDS011;5220;43.192;23.284;2022-07-22T08:26:20;11.95;;;4.38;;
10347;SDS011;5220;43.192;23.284;2022-07-22T08:28:47;8.35;;;4.13;;
10347;SDS011;5220;43.192;23.284;2022-07-22T08:31:14;78.90;;;9.20;;
10347;SDS011;5220;43.192;23.284;2022-07-22T08:33:40;4.82;;;3.78;;
10347;SDS011;5220;43.192;23.284;2022-07-22T08:36:07;9.52;;;4.65;;
10347;SDS011;5220;43.192;23.284;2022-07-22T08:38:34;7.70;;;4.43;;
10347;SDS011;5220;43.192;23.284;2022-07-22T08:41:03;7.60;;;4.15;;
10347;SDS011;5220;43.192;23.284;2022-07-22T08:43:30;6.25;;;4.30;;
10347;SDS011;5220;43.192;23.284;2022-07-22T08:46:00;8.07;;;4.38;;
10347;SDS011;5220;43.192;23.284;2022-07-22T08:48:28;3.90;;;3.50;;
10347;SDS011;5220;43.192;23.284;2022-07-22T08:50:55;7.28;;;4.45;;
10347;SDS011;5220;43.192;23.284;2022-07-22T08:53:22;7.47;;;4.35;;
10347;SDS011;5220;43.192;23.284;2022-07-22T08:55:49;7.28;;;4.35;;
10347;SDS011;5220;43.192;23.284;2022-07-22T08:58:17;8.85;;;4.65;;
10347;SDS011;5220;43.192;23.284;2022-07-22T09:00:44;11.13;;;4.03;;
10347;SDS011;5220;43.192;23.284;2022-07-22T09:03:17;19.38;;;4.85;;
10347;SDS011;5220;43.192;23.284;2022-07-22T09:05:47;11.18;;;4.43;;
10347;SDS011;5220;43.192;23.284;2022-07-22T09:08:14;21.60;;;5.40;;
10347;SDS011;5220;43.192;23.284;2022-07-22T09:10:41;7.40;;;4.30;;
10347;SDS011;5220;43.192;23.284;2022-07-22T09:13:09;29.85;;;6.18;;
10347;SDS011;5220;43.192;23.284;2022-07-22T09:15:38;20.65;;;5.93;;
10347;SDS011;5220;43.192;23.284;2022-07-22T09:18:11;45.45;;;6.10;;
10347;SDS011;5220;43.192;23.284;2022-07-22T09:20:38;11.27;;;4.38;;
10347;SDS011;5220;43.192;23.284;2022-07-22T09:23:08;10.98;;;4.47;;
10347;SDS011;5220;43.192;23.284;2022-07-22T09:25:37;8.32;;;3.67;;
10347;SDS011;5220;43.192;23.284;2022-07-22T09:28:12;5.65;;;3.70;;
10347;SDS011;5220;43.192;23.284;2022-07-22T09:30:46;8.00;;;4.07;;
10347;SDS011;5220;43.192;23.284;2022-07-22T09:33:14;6.40;;;3.80;;
10347;SDS011;5220;43.192;23.284;2022-07-22T09:35:42;6.97;;;3.97;;
10347;SDS011;5220;43.192;23.284;2022-07-22T09:38:10;6.63;;;3.85;;
10347;SDS011;5220;43.192;23.284;2022-07-22T09:40:38;6.47;;;3.85;;
10347;SDS011;5220;43.192;23.284;2022-07-22T09:43:07;8.07;;;4.28;;
10347;SDS011;5220;43.192;23.284;2022-07-22T09:45:38;6.38;;;4.00;;
10347;SDS011;5220;43.192;23.284;2022-07-22T09:48:13;5.95;;;3.55;;
10347;SDS011;5220;43.192;23.284;2022-07-22T09:50:42;12.27;;;4.68;;
10347;SDS011;5220;43.192;23.284;2022-07-22T09:53:09;17.85;;;5.32;;
10347;SDS011;5220;43.192;23.284;2022-07-22T09:55:38;4.55;;;3.80;;
10347;SDS011;5220;43.192;23.284;2022-07-22T09:58:05;12.23;;;4.25;;
10347;SDS011;5220;43.192;23.284;2022-07-22T10:00:34;7.53;;;4.18;;
10347;SDS011;5220;43.192;23.284;2022-07-22T10:03:03;9.25;;;3.80;;
10347;SDS011;5220;43.192;23.284;2022-07-22T10:05:32;4.35;;;3.92;;
10347;SDS011;5220;43.192;23.284;2022-07-22T10:08:02;6.88;;;4.18;;
10347;SDS011;5220;43.192;23.284;2022-07-22T10:10:30;4.90;;;3.40;;
10347;SDS011;5220;43.192;23.284;2022-07-22T10:12:59;8.07;;;3.70;;
10347;SDS011;5220;43.192;23.284;2022-07-22T10:15:28;4.50;;;3.60;;
10347;SDS011;5220;43.192;23.284;2022-07-22T10:17:57;8.57;;;3.97;;
10347;SDS011;5220;43.192;23.284;2022-07-22T10:20:28;8.25;;;4.30;;
10347;SDS011;5220;43.192;23.284;2022-07-22T10:22:57;8.15;;;4.00;;
10347;SDS011;5220;43.192;23.284;2022-07-22T10:25:24;6.40;;;4.15;;
10347;SDS011;5220;43.192;23.284;2022-07-22T10:27:54;8.15;;;4.20;;
10347;SDS011;5220;43.192;23.284;2022-07-22T10:30:23;8.63;;;4.20;;
10347;SDS011;5220;43.192;23.284;2022-07-22T10:33:01;9.10;;;3.80;;
10347;SDS011;5220;43.192;23.284;2022-07-22T10:35:31;7.20;;;4.05;;
10347;SDS011;5220;43.192;23.284;2022-07-22T10:38:00;5.85;;;3.97;;
10347;SDS011;5220;43.192;23.284;2022-07-22T10:40:30;6.15;;;3.90;;
10347;SDS011;5220;43.192;23.284;2022-07-22T10:43:11;6.05;;;3.80;;
10347;SDS011;5220;43.192;23.284;2022-07-22T10:45:40;8.25;;;3.75;;
10347;SDS011;5220;43.192;23.284;2022-07-22T10:48:10;13.02;;;4.30;;
10347;SDS011;5220;43.192;23.284;2022-07-22T10:50:41;27.63;;;7.90;;
10347;SDS011;5220;43.192;23.284;2022-07-22T10:53:15;8.30;;;4.22;;
10347;SDS011;5220;43.192;23.284;2022-07-22T10:56:06;7.15;;;3.88;;
10347;SDS011;5220;43.192;23.284;2022-07-22T10:58:49;7.70;;;4.00;;
10347;SDS011;5220;43.192;23.284;2022-07-22T11:01:22;12.13;;;4.30;;
10347;SDS011;5220;43.192;23.284;2022-07-22T11:03:51;8.38;;;3.83;;
10347;SDS011;5220;43.192;23.284;2022-07-22T11:06:27;8.80;;;4.28;;
10347;SDS011;5220;43.192;23.284;2022-07-22T11:08:56;8.30;;;4.20;;
10347;SDS011;5220;43.192;23.284;2022-07-22T11:11:34;4.20;;;3.80;;
10347;SDS011;5220;43.192;23.284;2022-07-22T11:14:13;4.78;;;3.60;;
10347;SDS011;5220;43.192;23.284;2022-07-22T11:16:42;4.53;;;4.13;;
10347;SDS011;5220;43.192;23.284;2022-07-22T11:19:09;7.43;;;4.22;;
10347;SDS011;5220;43.192;23.284;2022-07-22T11:21:37;8.48;;;4.25;;
10347;SDS011;5220;43.192;23.284;2022-07-22T11:24:06;9.55;;;4.50;;
10347;SDS011;5220;43.192;23.284;2022-07-22T11:26:36;8.90;;;4.70;;
10347;SDS011;5220;43.192;23.284;2022-07-22T11:29:06;6.03;;;3.92;;
10347;SDS011;5220;43.192;23.284;2022-07-22T11:31:34;7.15;;;3.90;;
10347;SDS011;5220;43.192;23.284;2022-07-22T11:34:08;7.35;;;4.68;;
10347;SDS011;5220;43.192;23.284;2022-07-22T11:36:38;6.85;;;3.63;;
10347;SDS011;5220;43.192;23.284;2022-07-22T11:39:07;4.65;;;4.10;;
10347;SDS011;5220;43.192;23.284;2022-07-22T11:41:35;5.57;;;3.47;;
10347;SDS011;5220;43.192;23.284;2022-07-22T11:44:03;9.85;;;4.05;;
10347;SDS011;5220;43.192;23.284;2022-07-22T11:46:34;9.15;;;4.35;;
10347;SDS011;5220;43.192;23.284;2022-07-22T11:49:02;7.63;;;4.20;;
10347;SDS011;5220;43.192;23.284;2022-07-22T11:51:30;8.00;;;4.25;;
10347;SDS011;5220;43.192;23.284;2022-07-22T11:53:58;5.38;;;3.53;;
10347;SDS011;5220;43.192;23.284;2022-07-22T11:56:25;6.55;;;3.80;;
10347;SDS011;5220;43.192;23.284;2022-07-22T11:58:53;9.65;;;4.28;;
10347;SDS011;5220;43.192;23.284;2022-07-22T12:01:21;5.03;;;3.72;;
10347;SDS011;5220;43.192;23.284;2022-07-22T12:03:51;5.75;;;3.78;;
10347;SDS011;5220;43.192;23.284;2022-07-22T12:06:20;7.28;;;3.60;;
10347;SDS011;5220;43.192;23.284;2022-07-22T12:08:48;5.32;;;3.60;;
10347;SDS011;5220;43.192;23.284;2022-07-22T12:11:18;6.07;;;3.72;;
10347;SDS011;5220;43.192;23.284;2022-07-22T12:13:48;4.38;;;3.47;;
10347;SDS011;5220;43.192;23.284;2022-07-22T12:16:16;5.20;;;3.70;;
10347;SDS011;5220;43.192;23.284;2022-07-22T12:18:44;4.45;;;3.70;;
10347;SDS011;5220;43.192;23.284;2022-07-22T12:21:17;6.28;;;3.38;;
10347;SDS011;5220;43.192;23.284;2022-07-22T12:23:48;5.95;;;3.70;;
10347;SDS011;5220;43.192;23.284;2022-07-22T12:26:18;19.60;;;4.95;;
10347;SDS011;5220;43.192;23.284;2022-07-22T12:28:45;4.35;;;3.42;;
10347;SDS011;5220;43.192;23.284;2022-07-22T12:31:12;6.35;;;3.92;;
10347;SDS011;5220;43.192;23.284;2022-07-22T12:33:46;5.97;;;3.85;;
10347;SDS011;5220;43.192;23.284;2022-07-22T12:36:13;5.30;;;3.78;;
10347;SDS011;5220;43.192;23.284;2022-07-22T12:38:40;6.35;;;4.07;;
10347;SDS011;5220;43.192;23.284;2022-07-22T12:41:27;7.93;;;4.03;;
10347;SDS011;5220;43.192;23.284;2022-07-22T12:43:54;6.95;;;3.67;;
10347;SDS011;5220;43.192;23.284;2022-07-22T12:46:21;5.75;;;3.40;;
10347;SDS011;5220;43.192;23.284;2022-07-22T12:48:50;3.95;;;3.45;;
10347;SDS011;5220;43.192;23.284;2022-07-22T12:51:18;8.18;;;3.53;;
10347;SDS011;5220;43.192;23.284;2022-07-22T12:53:45;4.38;;;3.70;;
10347;SDS011;5220;43.192;23.284;2022-07-22T12:56:12;4.47;;;4.07;;
10347;SDS011;5220;43.192;23.284;2022-07-22T12:58:40;8.38;;;4.10;;
10347;SDS011;5220;43.192;23.284;2022-07-22T13:01:07;8.57;;;4.00;;
10347;SDS011;5220;43.192;23.284;2022-07-22T13:03:34;6.45;;;3.63;;
10347;SDS011;5220;43.192;23.284;2022-07-22T13:06:02;4.85;;;3.47;;
10347;SDS011;5220;43.192;23.284;2022-07-22T13:08:31;6.03;;;3.30;;
10347;SDS011;5220;43.192;23.284;2022-07-22T13:10:57;4.13;;;3.25;;
10347;SDS011;5220;43.192;23.284;2022-07-22T13:13:24;4.25;;;3.83;;
10347;SDS011;5220;43.192;23.284;2022-07-22T13:15:53;5.20;;;3.58;;
10347;SDS011;5220;43.192;23.284;2022-07-22T13:18:19;6.97;;;4.32;;
10347;SDS011;5220;43.192;23.284;2022-07-22T13:20:46;8.25;;;3.45;;
10347;SDS011;5220;43.192;23.284;2022-07-22T13:23:13;5.18;;;3.30;;
10347;SDS011;5220;43.192;23.284;2022-07-22T13:25:40;6.32;;;3.30;;
10347;SDS011;5220;43.192;23.284;2022-07-22T13:28:06;4.20;;;3.45;;
10347;SDS011;5220;43.192;23.284;2022-07-22T13:30:33;3.78;;;3.40;;
10347;SDS011;5220;43.192;23.284;2022-07-22T13:33:02;8.18;;;3.85;;
10347;SDS011;5220;43.192;23.284;2022-07-22T13:35:29;5.45;;;3.80;;
10347;SDS011;5220;43.192;23.284;2022-07-22T13:37:56;3.95;;;3.35;;
10347;SDS011;5220;43.192;23.284;2022-07-22T13:40:23;6.60;;;3.72;;
10347;SDS011;5220;43.192;23.284;2022-07-22T13:42:50;3.85;;;3.28;;
10347;SDS011;5220;43.192;23.284;2022-07-22T13:45:16;10.75;;;3.58;;
10347;SDS011;5220;43.192;23.284;2022-07-22T13:47:43;5.13;;;3.50;;
10347;SDS011;5220;43.192;23.284;2022-07-22T13:50:12;8.68;;;5.32;;
10347;SDS011;5220;43.192;23.284;2022-07-22T13:52:38;4.50;;;3.40;;
10347;SDS011;5220;43.192;23.284;2022-07-22T13:55:06;8.38;;;3.97;;
10347;SDS011;5220;43.192;23.284;2022-07-22T13:57:33;5.10;;;3.78;;
10347;SDS011;5220;43.192;23.284;2022-07-22T14:00:00;5.22;;;3.20;;
10347;SDS011;5220;43.192;23.284;2022-07-22T14:02:28;7.32;;;4.03;;
10347;SDS011;5220;43.192;23.284;2022-07-22T14:04:55;4.88;;;3.92;;
10347;SDS011;5220;43.192;23.284;2022-07-22T14:07:23;5.32;;;3.65;;
10347;SDS011;5220;43.192;23.284;2022-07-22T14:09:50;4.25;;;3.80;;
10347;SDS011;5220;43.192;23.284;2022-07-22T14:12:16;7.13;;;3.70;;
10347;SDS011;5220;43.192;23.284;2022-07-22T14:14:43;8.07;;;3.70;;
10347;SDS011;5220;43.192;23.284;2022-07-22T14:17:10;6.88;;;3.83;;
10347;SDS011;5220;43.192;23.284;2022-07-22T14:19:37;4.82;;;3.28;;
10347;SDS011;5220;43.192;23.284;2022-07-22T14:22:03;6.70;;;3.80;;
10347;SDS011;5220;43.192;23.284;2022-07-22T14:24:32;6.78;;;3.70;;
10347;SDS011;5220;43.192;23.284;2022-07-22T14:26:59;5.95;;;4.05;;
10347;SDS011;5220;43.192;23.284;2022-07-22T14:29:25;5.05;;;3.60;;
10347;SDS011;5220;43.192;23.284;2022-07-22T14:31:52;4.65;;;3.45;;
10347;SDS011;5220;43.192;23.284;2022-07-22T14:34:19;4.75;;;3.65;;
10347;SDS011;5220;43.192;23.284;2022-07-22T14:36:47;4.00;;;3.10;;
10347;SDS011;5220;43.192;23.284;2022-07-22T14:39:14;5.38;;;3.60;;
10347;SDS011;5220;43.192;23.284;2022-07-22T14:41:42;5.28;;;3.72;;
10347;SDS011;5220;43.192;23.284;2022-07-22T14:44:11;4.93;;;3.40;;
10347;SDS011;5220;43.192;23.284;2022-07-22T14:46:38;7.15;;;3.53;;
10347;SDS011;5220;43.192;23.284;2022-07-22T14:49:04;10.27;;;6.20;;
10347;SDS011;5220;43.192;23.284;2022-07-22T14:51:31;8.13;;;5.03;;
10347;SDS011;5220;43.192;23.284;2022-07-22T14:53:58;6.85;;;4.07;;
10347;SDS011;5220;43.192;23.284;2022-07-22T14:56:25;4.43;;;3.25;;